createdAt,value
2022-07-31T00:04:20.668Z,62.10
2022-07-31T00:09:52.395Z,62.00
2022-07-31T00:14:48.113Z,61.70
2022-07-31T00:19:53.108Z,61.70
2022-07-31T00:24:57.122Z,61.90
2022-07-31T00:30:00.770Z,61.90
2022-07-31T00:35:07.024Z,62.00
2022-07-31T00:40:15.698Z,62.20
2022-07-31T00:45:19.382Z,62.40
2022-07-31T00:50:31.192Z,62.70
2022-07-31T00:55:51.319Z,63.00
2022-07-31T01:00:55.747Z,63.20
2022-07-31T01:06:01.168Z,63.30
2022-07-31T01:11:09.552Z,63.30
2022-07-31T01:16:16.485Z,63.40
2022-07-31T01:21:28.538Z,63.40
2022-07-31T01:26:43.274Z,63.70
2022-07-31T01:31:58.740Z,63.90
2022-07-31T01:37:10.539Z,64.20
2022-07-31T01:42:18.692Z,64.30
2022-07-31T01:47:24.901Z,64.90
2022-07-31T01:52:31.619Z,64.30
2022-07-31T01:57:37.355Z,64.30
2022-07-31T02:02:45.418Z,64.40
2022-07-31T02:07:51.281Z,64.40
2022-07-31T02:13:03.874Z,65.20
2022-07-31T02:18:11.399Z,64.60
2022-07-31T02:23:17.119Z,64.60
2022-07-31T02:28:22.231Z,64.60
2022-07-31T02:33:27.843Z,64.70
2022-07-31T02:38:33.613Z,64.70
2022-07-31T02:43:37.908Z,64.70
2022-07-31T02:48:44.151Z,64.60
2022-07-31T02:53:48.371Z,64.80
2022-07-31T02:58:52.564Z,65.00
2022-07-31T03:03:59.668Z,65.10
2022-07-31T03:09:04.709Z,65.10
2022-07-31T03:14:11.820Z,65.30
2022-07-31T03:19:17.260Z,65.60
2022-07-31T03:24:21.230Z,65.70
2022-07-31T03:29:42.376Z,66.00
2022-07-31T03:34:49.506Z,66.10
2022-07-31T03:39:53.269Z,66.20
2022-07-31T03:44:57.404Z,66.10
2022-07-31T03:50:03.390Z,66.20
2022-07-31T03:55:08.856Z,66.20
2022-07-31T04:00:16.995Z,66.30
2022-07-31T04:05:24.024Z,66.30
2022-07-31T04:10:28.025Z,66.10
2022-07-31T04:15:31.822Z,66.20
2022-07-31T04:20:36.970Z,66.40
2022-07-31T04:25:40.817Z,66.50
2022-07-31T04:30:44.564Z,66.60
2022-07-31T04:35:49.724Z,66.60
2022-07-31T04:40:53.454Z,66.70
2022-07-31T04:45:57.848Z,66.50
2022-07-31T04:51:02.874Z,66.50
2022-07-31T04:56:24.494Z,66.50
2022-07-31T05:01:28.577Z,66.40
2022-07-31T05:06:38.439Z,66.80
2022-07-31T05:11:43.017Z,66.90
2022-07-31T05:16:47.301Z,67.10
2022-07-31T05:21:55.625Z,66.90
2022-07-31T05:27:01.948Z,66.60
2022-07-31T05:32:06.464Z,66.30
2022-07-31T05:37:12.061Z,66.30
2022-07-31T05:42:16.914Z,66.30
2022-07-31T05:47:20.759Z,66.20
2022-07-31T05:52:25.798Z,66.10
2022-07-31T05:57:33.250Z,66.30
2022-07-31T06:02:37.733Z,66.20
2022-07-31T06:07:51.022Z,66.40
2022-07-31T06:12:55.454Z,66.20
2022-07-31T06:17:59.222Z,66.30
2022-07-31T06:23:14.699Z,66.40
2022-07-31T06:28:33.821Z,66.20
2022-07-31T06:33:52.781Z,66.40
2022-07-31T06:38:59.169Z,66.60
2022-07-31T06:44:06.640Z,66.80
2022-07-31T06:49:13.028Z,66.80
2022-07-31T06:54:18.146Z,67.00
2022-07-31T06:59:39.144Z,66.90
2022-07-31T07:05:05.093Z,66.90
2022-07-31T07:10:10.279Z,66.80
2022-07-31T07:15:15.762Z,66.70
2022-07-31T07:20:20.045Z,66.40
2022-07-31T07:25:25.244Z,66.30
2022-07-31T07:30:30.292Z,66.40
2022-07-31T07:35:34.510Z,66.30
2022-07-31T07:40:42.049Z,66.20
2022-07-31T07:45:45.973Z,65.80
2022-07-31T07:50:49.713Z,65.70
2022-07-31T07:55:56.476Z,65.60
2022-07-31T08:01:04.623Z,65.40
2022-07-31T08:06:09.211Z,65.50
2022-07-31T08:11:17.170Z,65.50
2022-07-31T08:16:25.979Z,65.30
2022-07-31T08:21:29.820Z,64.90
2022-07-31T08:26:48.688Z,64.60
2022-07-31T08:31:52.850Z,64.40
2022-07-31T08:36:58.447Z,64.20
2022-07-31T08:42:07.417Z,63.90
2022-07-31T08:47:14.871Z,63.60
2022-07-31T08:52:21.183Z,63.30
2022-07-31T08:57:27.989Z,63.20
2022-07-31T09:02:33.547Z,63.00
2022-07-31T09:07:38.779Z,62.80
2022-07-31T09:12:43.781Z,62.50
2022-07-31T09:17:53.716Z,62.40
2022-07-31T09:23:07.392Z,62.60
2022-07-31T09:28:12.867Z,62.50
2022-07-31T09:33:17.546Z,61.70
2022-07-31T09:38:32.418Z,61.30
2022-07-31T09:43:51.587Z,59.90
2022-07-31T09:49:00.291Z,58.90
2022-07-31T09:54:04.798Z,58.60
2022-07-31T09:59:11.722Z,58.30
2022-07-31T10:04:17.479Z,57.80
2022-07-31T10:09:22.729Z,57.10
2022-07-31T10:14:31.957Z,56.40
2022-07-31T10:19:39.370Z,55.20
2022-07-31T10:24:48.106Z,54.30
2022-07-31T10:29:54.474Z,53.50
2022-07-31T10:34:58.091Z,53.10
2022-07-31T10:40:09.834Z,53.00
2022-07-31T10:45:16.637Z,52.60
2022-07-31T10:50:23.731Z,52.30
2022-07-31T10:55:30.157Z,51.60
2022-07-31T11:00:35.861Z,50.90
2022-07-31T11:06:01.076Z,50.10
2022-07-31T11:11:11.828Z,50.00
2022-07-31T11:16:20.753Z,49.40
2022-07-31T11:21:40.029Z,49.10
2022-07-31T11:26:49.193Z,48.90
2022-07-31T11:31:54.209Z,48.40
2022-07-31T11:36:57.862Z,48.10
2022-07-31T11:42:03.424Z,48.00
2022-07-31T11:48:09.587Z,47.70
2022-07-31T11:52:37.249Z,47.90
2022-07-31T11:57:51.380Z,48.10
2022-07-31T12:02:58.775Z,47.90
2022-07-31T12:08:02.590Z,47.70
2022-07-31T12:13:06.096Z,47.80
2022-07-31T12:18:11.062Z,47.40
2022-07-31T12:23:40.551Z,46.70
2022-07-31T12:28:40.198Z,46.30
2022-07-31T12:33:45.697Z,45.60
2022-07-31T12:39:00.323Z,44.80
2022-07-31T12:44:13.402Z,43.70
2022-07-31T12:49:19.972Z,43.70
2022-07-31T12:54:24.115Z,43.80
2022-07-31T12:59:27.807Z,43.90
2022-07-31T13:04:32.849Z,43.40
2022-07-31T13:09:36.450Z,43.30
2022-07-31T13:14:40.205Z,43.00
2022-07-31T13:19:45.163Z,42.40
2022-07-31T13:24:48.764Z,42.10
2022-07-31T13:29:53.568Z,41.60
2022-07-31T13:35:23.899Z,41.80
2022-07-31T13:40:42.987Z,41.70
2022-07-31T13:45:46.561Z,41.80
2022-07-31T13:50:51.615Z,42.00
2022-07-31T13:55:55.227Z,42.20
2022-07-31T14:01:04.173Z,42.20
2022-07-31T14:06:09.638Z,41.50
2022-07-31T14:11:13.813Z,41.20
2022-07-31T14:16:19.003Z,41.30
2022-07-31T14:21:24.280Z,41.50
2022-07-31T14:26:27.990Z,42.00
2022-07-31T14:31:31.816Z,42.00
2022-07-31T14:36:36.813Z,42.80
2022-07-31T14:41:40.418Z,42.50
2022-07-31T14:46:44.025Z,42.70
2022-07-31T14:51:49.065Z,43.20
2022-07-31T14:57:01.322Z,43.60
2022-07-31T15:02:06.232Z,43.90
2022-07-31T15:07:34.115Z,44.20
2022-07-31T15:12:35.493Z,44.50
2022-07-31T15:17:39.081Z,44.60
2022-07-31T15:22:44.114Z,44.80
2022-07-31T15:27:47.776Z,44.70
2022-07-31T15:32:53.486Z,44.80
2022-07-31T15:37:59.587Z,45.00
2022-07-31T15:43:03.169Z,45.20
2022-07-31T15:48:10.152Z,45.40
2022-07-31T15:53:15.299Z,45.40
2022-07-31T15:58:18.931Z,45.60
2022-07-31T16:03:22.672Z,45.80
2022-07-31T16:08:35.198Z,45.90
2022-07-31T16:13:39.567Z,46.00
2022-07-31T16:18:43.157Z,46.20
2022-07-31T16:23:48.193Z,46.30
2022-07-31T16:28:54.128Z,46.60
2022-07-31T16:33:58.025Z,46.70
2022-07-31T16:39:19.428Z,46.70
2022-07-31T16:44:24.106Z,46.70
2022-07-31T16:49:31.900Z,46.80
2022-07-31T16:54:42.587Z,46.80
2022-07-31T16:59:57.294Z,46.90
2022-07-31T17:05:01.546Z,47.00
2022-07-31T17:10:07.630Z,47.10
2022-07-31T17:15:12.270Z,47.20
2022-07-31T17:20:23.187Z,47.40
2022-07-31T17:25:28.619Z,47.40
2022-07-31T17:30:32.739Z,47.50
2022-07-31T17:35:36.310Z,47.60
2022-07-31T17:40:43.878Z,47.60
2022-07-31T17:45:59.346Z,47.60
2022-07-31T17:51:10.567Z,47.70
2022-07-31T17:56:16.183Z,47.70
2022-07-31T18:01:19.969Z,47.80
2022-07-31T18:06:23.617Z,47.90
2022-07-31T18:11:28.733Z,48.10
2022-07-31T18:16:32.325Z,48.10
2022-07-31T18:21:35.933Z,48.30
2022-07-31T18:26:40.986Z,48.50
2022-07-31T18:31:45.003Z,48.70
2022-07-31T18:36:54.405Z,48.70
2022-07-31T18:41:59.873Z,48.80
2022-07-31T18:47:03.508Z,49.00
2022-07-31T18:52:07.589Z,49.70
2022-07-31T18:57:12.914Z,50.30
2022-07-31T19:02:16.713Z,50.90
2022-07-31T19:07:25.777Z,51.40
2022-07-31T19:12:30.745Z,51.90
2022-07-31T19:17:44.517Z,52.40
2022-07-31T19:22:48.926Z,52.70
2022-07-31T19:27:53.904Z,53.20
2022-07-31T19:32:59.316Z,53.50
2022-07-31T19:38:04.541Z,53.90
2022-07-31T19:43:11.575Z,54.30
2022-07-31T19:48:15.157Z,54.70
2022-07-31T19:53:18.763Z,55.10
2022-07-31T19:58:23.739Z,55.50
2022-07-31T20:03:27.475Z,55.90
2022-07-31T20:08:33.151Z,56.30
2022-07-31T20:13:38.781Z,56.60
2022-07-31T20:18:42.430Z,57.00
2022-07-31T20:23:49.123Z,57.40
2022-07-31T20:28:54.180Z,57.60
2022-07-31T20:33:58.299Z,58.00
2022-07-31T20:39:02.076Z,58.30
2022-07-31T20:44:07.109Z,59.20
2022-07-31T20:49:19.801Z,59.00
2022-07-31T20:54:35.011Z,59.30
2022-07-31T20:59:40.101Z,59.50
2022-07-31T21:04:43.741Z,59.80
2022-07-31T21:09:47.392Z,60.20
2022-07-31T21:14:52.390Z,60.60
2022-07-31T21:19:56.266Z,61.00
2022-07-31T21:25:00.859Z,61.50
2022-07-31T21:30:07.284Z,61.80
2022-07-31T21:35:12.237Z,62.00
2022-07-31T21:40:17.156Z,62.40
2022-07-31T21:45:23.138Z,62.90
2022-07-31T21:50:29.638Z,63.30
2022-07-31T21:55:33.246Z,63.70
2022-07-31T22:00:38.672Z,64.20
2022-07-31T22:06:00.065Z,64.60
2022-07-31T22:11:03.662Z,64.90
2022-07-31T22:16:08.716Z,65.30
2022-07-31T22:21:12.780Z,65.80
2022-07-31T22:26:16.780Z,66.10
2022-07-31T22:31:22.306Z,66.30
2022-07-31T22:36:26.738Z,66.40
2022-07-31T22:41:30.256Z,66.50
2022-07-31T22:46:36.909Z,66.40
2022-07-31T22:51:44.821Z,66.00
2022-07-31T22:56:50.028Z,66.30
2022-07-31T23:01:55.090Z,66.50
2022-07-31T23:06:58.728Z,66.80
2022-07-31T23:12:03.532Z,67.00
2022-07-31T23:17:08.895Z,67.50
2022-07-31T23:22:33.552Z,67.40
2022-07-31T23:27:37.754Z,67.60
2022-07-31T23:32:42.894Z,67.80
2022-07-31T23:37:47.763Z,68.00
2022-07-31T23:42:51.365Z,68.70
2022-07-31T23:47:58.871Z,68.40
2022-07-31T23:53:02.733Z,68.60
2022-07-31T23:58:06.386Z,68.70
